createdAt,value
2019-02-05T00:00:06.617Z,101404.83
2019-02-05T00:03:11.092Z,101394.68
2019-02-05T00:06:14.682Z,101395.13
2019-02-05T00:09:18.262Z,101396.08
2019-02-05T00:12:21.865Z,101389.53
2019-02-05T00:15:25.576Z,101393.43
2019-02-05T00:18:29.174Z,101390.40
2019-02-05T00:21:32.775Z,101393.05
2019-02-05T00:24:37.555Z,101385.09
2019-02-05T00:27:41.215Z,101384.30
2019-02-05T00:30:44.910Z,101384.30
2019-02-05T00:33:48.645Z,101379.00
2019-02-05T00:36:52.330Z,101372.94
2019-02-05T00:39:55.927Z,101370.67
2019-02-05T00:42:59.585Z,101366.70
2019-02-05T00:46:04.271Z,101374.64
2019-02-05T00:49:07.979Z,101375.17
2019-02-05T00:52:11.661Z,101376.50
2019-02-05T00:55:15.414Z,101373.78
2019-02-05T00:58:19.088Z,101368.55
2019-02-05T01:01:22.786Z,101368.55
2019-02-05T01:04:26.510Z,101369.88
2019-02-05T01:07:30.234Z,101372.14
2019-02-05T01:10:33.918Z,101380.09
2019-02-05T01:13:37.535Z,101379.22
2019-02-05T01:16:41.118Z,101386.27
2019-02-05T01:19:44.719Z,101388.98
2019-02-05T01:22:48.343Z,101393.87
2019-02-05T01:25:52.049Z,101396.94
2019-02-05T01:28:55.640Z,101382.81
2019-02-05T01:31:59.239Z,101376.64
2019-02-05T01:35:02.949Z,101374.00
2019-02-05T01:38:06.643Z,101350.23
2019-02-05T01:41:10.354Z,101346.74
2019-02-05T01:44:13.973Z,101343.15
2019-02-05T01:47:17.573Z,101335.66
2019-02-05T01:50:25.677Z,101336.14
2019-02-05T01:53:29.268Z,101342.28
2019-02-05T01:56:40.482Z,101341.44
2019-02-05T01:59:38.321Z,101330.84
2019-02-05T02:02:42.049Z,101321.57
2019-02-05T02:05:45.752Z,101322.06
2019-02-05T02:08:49.332Z,101332.67
2019-02-05T02:11:54.171Z,101330.88
2019-02-05T02:14:57.875Z,101326.05
2019-02-05T02:18:01.641Z,101320.36
2019-02-05T02:21:05.289Z,101317.34
2019-02-05T02:24:09.020Z,101319.50
2019-02-05T02:27:12.698Z,101314.27
2019-02-05T02:30:22.785Z,101312.48
2019-02-05T02:33:26.466Z,101326.61
2019-02-05T02:36:30.166Z,101320.89
2019-02-05T02:39:34.075Z,101319.19
2019-02-05T02:42:38.835Z,101313.89
2019-02-05T02:45:42.425Z,101307.72
2019-02-05T02:48:47.432Z,101303.75
2019-02-05T02:51:51.163Z,101301.02
2019-02-05T02:54:54.944Z,101291.37
2019-02-05T02:57:58.973Z,101280.02
2019-02-05T03:01:02.693Z,101281.72
2019-02-05T03:04:06.289Z,101280.78
2019-02-05T03:07:10.318Z,101278.13
2019-02-05T03:10:19.195Z,101280.78
2019-02-05T03:13:22.824Z,101274.61
2019-02-05T03:16:26.854Z,101279.91
2019-02-05T03:19:30.429Z,101276.42
2019-02-05T03:22:34.151Z,101280.78
2019-02-05T03:25:37.863Z,101282.55
2019-02-05T03:28:41.583Z,101275.55
2019-02-05T03:31:46.307Z,101281.72
2019-02-05T03:34:49.994Z,101279.07
2019-02-05T03:37:53.711Z,101276.50
2019-02-05T03:41:04.675Z,101270.33
2019-02-05T03:44:08.392Z,101268.17
2019-02-05T03:47:11.988Z,101266.36
2019-02-05T03:50:15.568Z,101267.30
2019-02-05T03:53:19.410Z,101270.89
2019-02-05T03:56:39.498Z,101271.73
2019-02-05T04:00:07.538Z,101283.20
2019-02-05T04:03:37.577Z,101286.79
2019-02-05T04:07:25.827Z,101285.05
2019-02-05T04:11:23.289Z,101282.89
2019-02-05T04:14:58.434Z,101286.38
2019-02-05T04:18:26.403Z,101281.08
2019-02-05T04:21:48.045Z,101282.89
2019-02-05T04:25:27.566Z,101286.38
2019-02-05T04:28:50.112Z,101284.67
2019-02-05T04:32:29.919Z,101284.22
2019-02-05T04:36:01.351Z,101295.64
2019-02-05T04:39:29.545Z,101299.23
2019-02-05T04:42:46.758Z,101312.02
2019-02-05T04:46:27.080Z,101307.56
2019-02-05T04:49:56.489Z,101298.30
2019-02-05T04:53:40.913Z,101300.94
2019-02-05T04:57:28.891Z,101302.27
2019-02-05T05:01:01.116Z,101296.59
2019-02-05T05:04:31.625Z,101299.77
2019-02-05T05:08:22.859Z,101305.06
2019-02-05T05:11:26.573Z,101312.94
2019-02-05T05:14:30.159Z,101319.25
2019-02-05T05:17:34.267Z,101322.84
2019-02-05T05:20:39.017Z,101326.81
2019-02-05T05:23:45.129Z,101325.49
2019-02-05T05:26:48.088Z,101337.03
2019-02-05T05:29:51.728Z,101338.73
2019-02-05T05:32:55.466Z,101336.16
2019-02-05T05:35:59.099Z,101330.41
2019-02-05T05:39:02.968Z,101328.67
2019-02-05T05:42:06.579Z,101337.94
2019-02-05T05:45:13.843Z,101335.22
2019-02-05T05:48:17.465Z,101341.00
2019-02-05T05:51:21.196Z,101345.89
2019-02-05T05:54:24.799Z,101348.16
2019-02-05T05:57:28.419Z,101346.83
2019-02-05T06:00:32.081Z,101341.91
2019-02-05T06:03:35.680Z,101340.59
2019-02-05T06:06:39.221Z,101339.67
2019-02-05T06:09:43.080Z,101337.10
2019-02-05T06:12:46.701Z,101333.97
2019-02-05T06:15:50.435Z,101326.51
2019-02-05T06:18:54.118Z,101324.70
2019-02-05T06:21:57.710Z,101313.64
2019-02-05T06:25:01.341Z,101314.89
2019-02-05T06:28:05.257Z,101314.10
2019-02-05T06:31:08.936Z,101316.37
2019-02-05T06:34:12.663Z,101306.16
2019-02-05T06:37:17.798Z,101323.78
2019-02-05T06:40:21.660Z,101316.30
2019-02-05T06:43:25.393Z,101315.84
2019-02-05T06:46:29.125Z,101322.84
2019-02-05T06:49:32.839Z,101321.59
2019-02-05T06:52:36.427Z,101322.46
2019-02-05T06:55:40.031Z,101317.69
2019-02-05T06:58:46.367Z,101317.69
2019-02-05T07:01:49.089Z,101320.34
2019-02-05T07:04:52.793Z,101315.05
2019-02-05T07:07:56.492Z,101319.40
2019-02-05T07:11:00.089Z,101318.64
2019-02-05T07:14:03.864Z,101317.69
2019-02-05T07:17:07.596Z,101320.34
2019-02-05T07:20:13.243Z,101320.34
2019-02-05T07:23:17.160Z,101316.83
2019-02-05T07:26:20.755Z,101316.90
2019-02-05T07:29:24.457Z,101319.47
2019-02-05T07:32:28.168Z,101316.90
2019-02-05T07:35:31.859Z,101325.78
2019-02-05T07:38:35.772Z,101325.78
2019-02-05T07:41:39.513Z,101329.38
2019-02-05T07:44:43.193Z,101324.01
2019-02-05T07:47:46.939Z,101323.14
2019-02-05T07:50:50.610Z,101324.46
2019-02-05T07:53:54.333Z,101331.87
2019-02-05T07:56:58.049Z,101323.14
2019-02-05T08:00:01.741Z,101322.19
2019-02-05T08:03:05.479Z,101324.77
2019-02-05T08:06:09.138Z,101311.45
2019-02-05T08:09:14.953Z,101316.98
2019-02-05T08:12:18.809Z,101317.40
2019-02-05T08:15:27.504Z,101325.20
2019-02-05T08:18:32.164Z,101325.50
2019-02-05T08:21:35.928Z,101338.67
2019-02-05T08:24:39.563Z,101337.35
2019-02-05T08:27:43.298Z,101325.81
2019-02-05T08:30:48.076Z,101332.28
2019-02-05T08:33:51.615Z,101336.26
2019-02-05T08:36:55.212Z,101339.29
2019-02-05T08:39:58.911Z,101349.02
2019-02-05T08:43:02.660Z,101358.66
2019-02-05T08:46:06.320Z,101349.39
2019-02-05T08:49:10.050Z,101352.42
2019-02-05T08:52:13.647Z,101359.42
2019-02-05T08:55:18.795Z,101345.65
2019-02-05T08:58:30.511Z,101342.05
2019-02-05T09:01:27.724Z,101344.70
2019-02-05T09:04:31.632Z,101353.06
2019-02-05T09:07:35.359Z,101353.91
2019-02-05T09:10:42.159Z,101355.53
2019-02-05T09:13:47.258Z,101349.41
2019-02-05T09:16:51.961Z,101344.17
2019-02-05T09:19:55.684Z,101343.61
2019-02-05T09:22:59.819Z,101348.77
2019-02-05T09:26:03.565Z,101354.86
2019-02-05T09:29:07.212Z,101352.13
2019-02-05T09:32:10.920Z,101358.38
2019-02-05T09:35:14.623Z,101364.13
2019-02-05T09:38:18.328Z,101357.50
2019-02-05T09:41:22.103Z,101361.94
2019-02-05T09:44:25.770Z,101356.94
2019-02-05T09:47:29.469Z,101361.78
2019-02-05T09:50:44.204Z,101366.14
2019-02-05T09:53:39.529Z,101369.52
2019-02-05T09:56:43.246Z,101364.21
2019-02-05T09:59:46.938Z,101367.66
2019-02-05T10:02:51.796Z,101366.15
2019-02-05T10:05:56.400Z,101367.32
2019-02-05T10:09:00.120Z,101371.79
2019-02-05T10:12:03.848Z,101372.63
2019-02-05T10:15:11.401Z,101382.77
2019-02-05T10:18:14.942Z,101377.02
2019-02-05T10:21:18.609Z,101381.90
2019-02-05T10:24:23.564Z,101371.71
2019-02-05T10:27:27.285Z,101381.90
2019-02-05T10:30:33.282Z,101381.38
2019-02-05T10:33:37.740Z,101379.17
2019-02-05T10:36:41.437Z,101376.59
2019-02-05T10:39:45.152Z,101377.77
2019-02-05T10:42:48.988Z,101378.57
2019-02-05T10:45:53.598Z,101375.92
2019-02-05T10:48:57.196Z,101371.53
2019-02-05T10:52:02.941Z,101373.95
2019-02-05T10:55:07.985Z,101361.72
2019-02-05T10:58:11.687Z,101365.31
2019-02-05T11:01:15.405Z,101362.73
2019-02-05T11:04:20.115Z,101363.58
2019-02-05T11:07:24.666Z,101366.79
2019-02-05T11:10:29.380Z,101370.84
2019-02-05T11:13:33.100Z,101372.63
2019-02-05T11:16:36.800Z,101375.69
2019-02-05T11:19:41.523Z,101370.92
2019-02-05T11:22:45.109Z,101369.59
2019-02-05T11:25:48.731Z,101370.92
2019-02-05T11:28:52.458Z,101377.55
2019-02-05T11:31:56.167Z,101373.57
2019-02-05T11:35:01.188Z,101377.55
2019-02-05T11:38:05.255Z,101378.41
2019-02-05T11:41:09.916Z,101378.88
2019-02-05T11:44:13.834Z,101379.25
2019-02-05T11:47:18.576Z,101379.25
2019-02-05T11:50:22.283Z,101382.31
2019-02-05T11:53:26.211Z,101384.02
2019-02-05T11:56:29.941Z,101385.80
2019-02-05T11:59:33.607Z,101378.72
2019-02-05T12:02:37.522Z,101382.70
2019-02-05T12:05:42.297Z,101380.05
2019-02-05T12:08:46.984Z,101384.02
2019-02-05T12:11:52.722Z,101380.58
2019-02-05T12:14:56.425Z,101377.85
2019-02-05T12:18:00.164Z,101371.71
2019-02-05T12:21:03.941Z,101374.36
2019-02-05T12:24:07.607Z,101374.36
2019-02-05T12:27:11.280Z,101374.36
2019-02-05T12:30:23.692Z,101364.67
2019-02-05T12:33:28.414Z,101362.52
2019-02-05T12:36:32.167Z,101362.09
2019-02-05T12:39:37.745Z,101361.72
2019-02-05T12:42:42.530Z,101365.23
2019-02-05T12:45:46.233Z,101363.98
2019-02-05T12:48:49.904Z,101358.20
2019-02-05T12:51:53.616Z,101352.52
2019-02-05T12:54:57.276Z,101341.91
2019-02-05T12:58:01.025Z,101344.48
2019-02-05T13:01:04.737Z,101342.70
2019-02-05T13:04:08.401Z,101349.64
2019-02-05T13:07:12.096Z,101351.42
2019-02-05T13:10:17.225Z,101353.99
2019-02-05T13:13:20.977Z,101353.99
2019-02-05T13:16:24.646Z,101346.91
2019-02-05T13:19:28.386Z,101346.98
2019-02-05T13:22:32.088Z,101344.27
2019-02-05T13:25:35.979Z,101337.25
2019-02-05T13:28:39.731Z,101338.58
2019-02-05T13:31:43.459Z,101333.27
2019-02-05T13:34:47.127Z,101328.44
2019-02-05T13:37:51.082Z,101337.25
2019-02-05T13:40:54.744Z,101338.58
2019-02-05T13:43:58.481Z,101338.09
2019-02-05T13:47:02.179Z,101342.94
2019-02-05T13:50:08.368Z,101346.53
2019-02-05T13:53:12.005Z,101340.73
2019-02-05T13:56:15.705Z,101342.55
2019-02-05T13:59:19.417Z,101342.55
2019-02-05T14:02:23.134Z,101343.02
2019-02-05T14:05:26.859Z,101347.93
2019-02-05T14:08:31.540Z,101342.63
2019-02-05T14:11:35.266Z,101351.42
2019-02-05T14:14:38.981Z,101355.02
2019-02-05T14:17:42.578Z,101351.04
2019-02-05T14:20:46.403Z,101355.02
2019-02-05T14:23:50.104Z,101348.92
2019-02-05T14:26:53.799Z,101352.13
2019-02-05T14:29:57.500Z,101358.77
2019-02-05T14:33:01.194Z,101351.65
2019-02-05T14:36:04.935Z,101352.13
2019-02-05T14:39:10.027Z,101353.46
2019-02-05T14:42:13.747Z,101364.44
2019-02-05T14:45:17.532Z,101366.15
2019-02-05T14:48:21.141Z,101372.70
2019-02-05T14:51:24.884Z,101370.39
2019-02-05T14:54:28.588Z,101369.44
2019-02-05T14:57:32.268Z,101373.34
2019-02-05T15:00:37.015Z,101371.15
2019-02-05T15:03:40.740Z,101374.10
2019-02-05T15:06:44.510Z,101374.03
2019-02-05T15:09:48.196Z,101372.32
2019-02-05T15:12:51.923Z,101380.27
2019-02-05T15:15:55.568Z,101374.97
2019-02-05T15:18:59.254Z,101376.75
2019-02-05T15:22:02.949Z,101383.38
2019-02-05T15:25:07.976Z,101379.10
2019-02-05T15:28:11.598Z,101378.72
2019-02-05T15:31:15.288Z,101378.88
2019-02-05T15:34:27.158Z,101384.55
2019-02-05T15:37:30.932Z,101386.82
2019-02-05T15:40:35.652Z,101384.17
2019-02-05T15:43:39.528Z,101387.77
2019-02-05T15:46:43.286Z,101389.09
2019-02-05T15:49:46.945Z,101393.06
2019-02-05T15:52:51.936Z,101389.85
2019-02-05T15:55:56.633Z,101396.09
2019-02-05T15:59:00.331Z,101402.34
2019-02-05T16:02:06.307Z,101410.75
2019-02-05T16:05:10.890Z,101411.20
2019-02-05T16:08:14.496Z,101410.75
2019-02-05T16:11:18.425Z,101412.95
2019-02-05T16:14:22.238Z,101416.05
2019-02-05T16:17:26.847Z,101423.13
2019-02-05T16:20:30.573Z,101418.25
2019-02-05T16:23:34.165Z,101417.61
2019-02-05T16:26:37.760Z,101415.83
2019-02-05T16:29:41.692Z,101413.25
2019-02-05T16:32:45.475Z,101423.86
2019-02-05T16:35:49.111Z,101420.34
2019-02-05T16:38:54.357Z,101421.59
2019-02-05T16:41:57.979Z,101422.45
2019-02-05T16:45:01.678Z,101428.22
2019-02-05T16:48:06.653Z,101429.08
2019-02-05T16:51:10.293Z,101437.03
2019-02-05T16:54:13.995Z,101435.33
2019-02-05T16:57:17.704Z,101442.34
2019-02-05T17:00:26.807Z,101446.16
2019-02-05T17:03:30.432Z,101448.25
2019-02-05T17:06:34.050Z,101456.70
2019-02-05T17:09:37.639Z,101456.63
2019-02-05T17:12:41.170Z,101460.98
2019-02-05T17:15:44.747Z,101464.39
2019-02-05T17:18:48.341Z,101467.46
2019-02-05T17:21:52.043Z,101470.11
2019-02-05T17:24:55.767Z,101471.81
2019-02-05T17:28:00.065Z,101476.25
2019-02-05T17:31:04.712Z,101476.59
2019-02-05T17:34:08.282Z,101478.45
2019-02-05T17:37:12.019Z,101488.11
2019-02-05T17:40:17.325Z,101477.99
2019-02-05T17:43:21.108Z,101479.31
2019-02-05T17:46:25.790Z,101478.38
2019-02-05T17:49:29.497Z,101477.92
2019-02-05T17:52:33.215Z,101475.72
2019-02-05T17:55:36.821Z,101470.73
2019-02-05T17:58:40.406Z,101474.70
2019-02-05T18:01:44.015Z,101475.19
2019-02-05T18:04:47.640Z,101477.28
2019-02-05T18:07:52.189Z,101481.19
2019-02-05T18:10:55.763Z,101489.14
2019-02-05T18:13:59.363Z,101490.84
2019-02-05T18:17:03.988Z,101491.34
2019-02-05T18:20:09.100Z,101488.20
2019-02-05T18:23:12.624Z,101489.94
2019-02-05T18:26:16.245Z,101490.32
2019-02-05T18:29:19.827Z,101499.98
2019-02-05T18:32:23.427Z,101499.59
2019-02-05T18:35:27.142Z,101496.88
2019-02-05T18:38:30.871Z,101501.23
2019-02-05T18:41:34.540Z,101499.45
2019-02-05T18:44:38.070Z,101498.58
2019-02-05T18:47:41.625Z,101502.63
2019-02-05T18:50:45.242Z,101507.41
2019-02-05T18:53:49.985Z,101504.37
2019-02-05T18:56:53.692Z,101503.05
2019-02-05T18:59:57.534Z,101502.10
2019-02-05T19:03:01.312Z,101500.40
2019-02-05T19:06:04.903Z,101503.95
2019-02-05T19:09:13.171Z,101497.33
2019-02-05T19:12:16.945Z,101498.66
2019-02-05T19:15:23.101Z,101500.40
2019-02-05T19:18:26.807Z,101498.20
2019-02-05T19:21:30.364Z,101498.66
2019-02-05T19:24:42.515Z,101505.70
2019-02-05T19:27:48.161Z,101505.70
2019-02-05T19:30:52.997Z,101509.11
2019-02-05T19:33:57.634Z,101509.50
2019-02-05T19:37:01.602Z,101507.41
2019-02-05T19:40:05.650Z,101505.52
2019-02-05T19:43:09.373Z,101516.54
2019-02-05T19:46:37.397Z,101523.17
2019-02-05T19:49:51.185Z,101519.58
2019-02-05T19:52:55.004Z,101523.17
2019-02-05T19:55:58.559Z,101517.38
2019-02-05T19:59:03.315Z,101517.80
2019-02-05T20:02:07.085Z,101523.94
2019-02-05T20:05:10.723Z,101526.59
2019-02-05T20:08:14.307Z,101525.67
2019-02-05T20:11:17.820Z,101524.50
2019-02-05T20:14:21.333Z,101522.06
2019-02-05T20:17:24.924Z,101534.08
2019-02-05T20:20:31.548Z,101527.59
2019-02-05T20:23:33.963Z,101528.98
2019-02-05T20:26:37.698Z,101528.68
2019-02-05T20:29:41.376Z,101527.50
2019-02-05T20:32:44.972Z,101537.30
2019-02-05T20:35:48.611Z,101534.83
2019-02-05T20:38:53.710Z,101537.06
2019-02-05T20:41:57.672Z,101541.05
2019-02-05T20:45:01.209Z,101540.28
2019-02-05T20:48:04.927Z,101534.17
2019-02-05T20:51:09.788Z,101533.30
2019-02-05T20:54:13.489Z,101531.66
2019-02-05T20:57:17.088Z,101533.06
2019-02-05T21:00:21.381Z,101537.04
2019-02-05T21:03:25.025Z,101542.34
2019-02-05T21:06:28.792Z,101535.78
2019-02-05T21:09:32.460Z,101542.34
2019-02-05T21:12:36.066Z,101539.77
2019-02-05T21:15:40.651Z,101535.78
2019-02-05T21:18:44.284Z,101531.42
2019-02-05T21:21:47.838Z,101533.55
2019-02-05T21:24:51.392Z,101536.73
2019-02-05T21:27:57.965Z,101526.69
2019-02-05T21:31:00.404Z,101531.98
2019-02-05T21:34:14.853Z,101529.41
2019-02-05T21:37:09.395Z,101536.34
2019-02-05T21:40:15.816Z,101539.14
2019-02-05T21:43:19.433Z,101537.42
2019-02-05T21:46:23.022Z,101535.69
2019-02-05T21:49:26.747Z,101541.55
2019-02-05T21:52:30.507Z,101538.48
2019-02-05T21:55:34.229Z,101541.13
2019-02-05T21:58:38.905Z,101538.48
2019-02-05T22:01:43.015Z,101537.70
2019-02-05T22:04:46.641Z,101545.66
2019-02-05T22:07:53.494Z,101544.79
2019-02-05T22:10:58.673Z,101537.85
2019-02-05T22:14:02.241Z,101535.59
2019-02-05T22:17:05.828Z,101534.81
2019-02-05T22:20:12.813Z,101531.75
2019-02-05T22:23:16.520Z,101533.49
2019-02-05T22:26:20.119Z,101539.56
2019-02-05T22:29:24.255Z,101532.17
2019-02-05T22:32:27.833Z,101535.34
2019-02-05T22:35:31.480Z,101532.30
2019-02-05T22:38:36.178Z,101526.94
2019-02-05T22:41:39.774Z,101530.04
2019-02-05T22:44:43.479Z,101529.66
2019-02-05T22:47:47.302Z,101532.30
2019-02-05T22:50:51.579Z,101535.41
2019-02-05T22:53:55.441Z,101531.86
2019-02-05T22:56:59.277Z,101537.23
2019-02-05T23:00:03.271Z,101538.13
2019-02-05T23:03:07.164Z,101539.07
2019-02-05T23:06:30.813Z,101541.66
2019-02-05T23:09:50.778Z,101537.75
2019-02-05T23:12:58.195Z,101540.84
2019-02-05T23:16:01.831Z,101532.06
2019-02-05T23:19:09.505Z,101533.91
2019-02-05T23:22:13.637Z,101536.56
2019-02-05T23:25:17.320Z,101536.56
2019-02-05T23:28:20.942Z,101536.63
2019-02-05T23:31:24.936Z,101533.98
2019-02-05T23:34:28.579Z,101541.86
2019-02-05T23:37:32.150Z,101540.16
2019-02-05T23:40:36.216Z,101539.77
2019-02-05T23:43:39.961Z,101536.67
2019-02-05T23:46:43.707Z,101534.96
2019-02-05T23:49:48.848Z,101541.58
2019-02-05T23:52:52.408Z,101548.59
2019-02-05T23:55:55.948Z,101544.61
2019-02-05T23:58:59.666Z,101547.27
